Airfield :
LOGIN :

Register | Disclaimer

   EN    FR    IT 

 










Legend :    VFR   Marginal VFR   IFR   Intensive IFR   Very Intensive IFR
Visi :
Ceiling :
>= 8 km
>= 3000ft
5 to 8 km
1000 to 3000 ft
1500m to 5 km
500 to 1000 ft
800 to 1500m
200 to 500 ft
< 800m
< 200 ft
Symbols :   Thunderstorms  Fog  Heavy snow  Heavy precipitations  Wind > 20 kt
SIGMETs :     Misc.  Thunderstorms  Icing  Turbulence  Mountain Waves  Volcanic Ashes






- Airport Elevation : 404 ft
- IATA code : WRO


EPWR - Wroclaw

CURRENT METAR :
  • 291300Z 02006KT 270V050 9999 SCT028 BKN033 26/18 Q1017

EXPIRED METARs :
  • 291230Z 36005KT 320V070 9999 BKN024 25/18 Q1017
  • 291200Z 01006KT 340V040 9999 SCT023 25/19 Q1017
  • 291130Z 03004KT 310V110 9999 BKN018 24/19 Q1017
  • 291100Z 03006KT 340V060 9999 SCT013 23/19 Q1017
  • 291030Z 35006KT 320V020 9999 SCT008 21/19 Q1017

TAF TAF EPWR
Valid from the 29 at 12:00 until the 30 at 12:00 UTC


291130Z 2912/3012 08007KT CAVOK
TEMPO 2912/3004 3000 SHRA BKN014 BKN020CB
PROB40
TEMPO 2912/2918 VRB15G25KT 2000 TSRA
PROB40
TEMPO 2918/3004 VRB15G30KT 1200 +TSRA BKN007 BKN012CB
TEMPO 3004/3007 2000 BR BKN005



MET'MAP, your aeronautical weather chart ! - Copyright ORBIFLY December 2007 - Disclaimer

ORBIFLY MET'MAP TEAM :

Programming & Development : Alexandra Zaïnal
Original concept : Baudouin d'Aumeries
Technical & hardware support : Manuel Goepfert
Assistance : Marc-Olivier Méhu




SOURCES & CREDITS :

   NOAA